sensor_id;sensor_type;location;lat;lon;timestamp;P1;durP1;ratioP1;P2;durP2;ratioP2
45760;SDS011;31471;51.040;14.414;2022-08-21T00:03:34;32.97;;;18.55;;
45760;SDS011;31471;51.040;14.414;2022-08-21T00:08:26;32.40;;;18.63;;
45760;SDS011;31471;51.040;14.414;2022-08-21T00:13:17;31.15;;;17.83;;
45760;SDS011;31471;51.040;14.414;2022-08-21T00:15:44;31.67;;;17.13;;
45760;SDS011;31471;51.040;14.414;2022-08-21T00:18:11;33.50;;;19.73;;
45760;SDS011;31471;51.040;14.414;2022-08-21T00:23:03;33.63;;;17.42;;
45760;SDS011;31471;51.040;14.414;2022-08-21T00:27:54;30.40;;;17.38;;
45760;SDS011;31471;51.040;14.414;2022-08-21T00:32:46;34.05;;;18.50;;
45760;SDS011;31471;51.040;14.414;2022-08-21T00:37:40;31.85;;;17.83;;
45760;SDS011;31471;51.040;14.414;2022-08-21T00:40:06;30.90;;;17.42;;
45760;SDS011;31471;51.040;14.414;2022-08-21T00:42:34;34.20;;;18.58;;
45760;SDS011;31471;51.040;14.414;2022-08-21T00:47:26;32.95;;;17.30;;
45760;SDS011;31471;51.040;14.414;2022-08-21T00:52:19;29.17;;;17.45;;
45760;SDS011;31471;51.040;14.414;2022-08-21T00:54:50;29.10;;;17.45;;
45760;SDS011;31471;51.040;14.414;2022-08-21T00:57:17;30.63;;;17.83;;
45760;SDS011;31471;51.040;14.414;2022-08-21T00:59:47;29.85;;;18.15;;
45760;SDS011;31471;51.040;14.414;2022-08-21T01:02:16;34.40;;;19.02;;
45760;SDS011;31471;51.040;14.414;2022-08-21T01:07:07;25.98;;;15.63;;
45760;SDS011;31471;51.040;14.414;2022-08-21T01:11:59;25.77;;;16.00;;
45760;SDS011;31471;51.040;14.414;2022-08-21T01:16:51;30.67;;;15.85;;
45760;SDS011;31471;51.040;14.414;2022-08-21T01:19:18;23.00;;;13.75;;
45760;SDS011;31471;51.040;14.414;2022-08-21T01:21:45;22.50;;;13.85;;
45760;SDS011;31471;51.040;14.414;2022-08-21T01:26:37;21.30;;;13.18;;
45760;SDS011;31471;51.040;14.414;2022-08-21T01:31:31;21.48;;;13.68;;
45760;SDS011;31471;51.040;14.414;2022-08-21T01:33:58;27.90;;;14.68;;
45760;SDS011;31471;51.040;14.414;2022-08-21T01:36:24;21.48;;;14.98;;
45760;SDS011;31471;51.040;14.414;2022-08-21T01:38:50;21.27;;;14.15;;
45760;SDS011;31471;51.040;14.414;2022-08-21T01:43:42;21.73;;;13.60;;
45760;SDS011;31471;51.040;14.414;2022-08-21T01:46:08;24.98;;;14.80;;
45760;SDS011;31471;51.040;14.414;2022-08-21T01:50:59;21.02;;;12.48;;
45760;SDS011;31471;51.040;14.414;2022-08-21T01:55:50;16.58;;;11.00;;
45760;SDS011;31471;51.040;14.414;2022-08-21T02:00:41;18.55;;;12.05;;
45760;SDS011;31471;51.040;14.414;2022-08-21T02:05:33;17.63;;;12.15;;
45760;SDS011;31471;51.040;14.414;2022-08-21T02:10:26;20.60;;;12.05;;
45760;SDS011;31471;51.040;14.414;2022-08-21T02:12:54;19.88;;;12.50;;
45760;SDS011;31471;51.040;14.414;2022-08-21T02:15:20;21.02;;;11.93;;
45760;SDS011;31471;51.040;14.414;2022-08-21T02:17:48;17.50;;;11.38;;
45760;SDS011;31471;51.040;14.414;2022-08-21T02:20:43;18.42;;;11.40;;
45760;SDS011;31471;51.040;14.414;2022-08-21T02:23:08;18.20;;;11.50;;
45760;SDS011;31471;51.040;14.414;2022-08-21T02:25:35;16.60;;;11.90;;
45760;SDS011;31471;51.040;14.414;2022-08-21T02:28:06;20.88;;;11.88;;
45760;SDS011;31471;51.040;14.414;2022-08-21T02:30:35;16.38;;;10.68;;
45760;SDS011;31471;51.040;14.414;2022-08-21T02:33:04;14.65;;;10.13;;
45760;SDS011;31471;51.040;14.414;2022-08-21T02:35:30;14.55;;;10.48;;
45760;SDS011;31471;51.040;14.414;2022-08-21T02:40:27;18.20;;;10.68;;
45760;SDS011;31471;51.040;14.414;2022-08-21T02:42:58;15.32;;;10.73;;
45760;SDS011;31471;51.040;14.414;2022-08-21T02:47:51;12.73;;;9.25;;
45760;SDS011;31471;51.040;14.414;2022-08-21T02:50:26;14.93;;;10.48;;
45760;SDS011;31471;51.040;14.414;2022-08-21T02:52:58;13.68;;;8.65;;
45760;SDS011;31471;51.040;14.414;2022-08-21T02:55:24;12.95;;;9.50;;
45760;SDS011;31471;51.040;14.414;2022-08-21T02:57:52;13.02;;;9.52;;
45760;SDS011;31471;51.040;14.414;2022-08-21T03:00:18;13.77;;;9.25;;
45760;SDS011;31471;51.040;14.414;2022-08-21T03:02:45;13.40;;;8.20;;
45760;SDS011;31471;51.040;14.414;2022-08-21T03:05:12;12.85;;;8.13;;
45760;SDS011;31471;51.040;14.414;2022-08-21T03:07:40;11.13;;;7.47;;
45760;SDS011;31471;51.040;14.414;2022-08-21T03:10:06;11.15;;;7.35;;
45760;SDS011;31471;51.040;14.414;2022-08-21T03:12:33;10.98;;;6.68;;
45760;SDS011;31471;51.040;14.414;2022-08-21T03:15:01;8.38;;;6.55;;
45760;SDS011;31471;51.040;14.414;2022-08-21T03:17:31;8.30;;;6.57;;
45760;SDS011;31471;51.040;14.414;2022-08-21T03:22:23;7.90;;;5.72;;
45760;SDS011;31471;51.040;14.414;2022-08-21T03:27:14;7.50;;;5.53;;
45760;SDS011;31471;51.040;14.414;2022-08-21T03:32:06;9.88;;;4.85;;
45760;SDS011;31471;51.040;14.414;2022-08-21T03:34:34;7.75;;;5.25;;
45760;SDS011;31471;51.040;14.414;2022-08-21T03:37:00;6.72;;;4.90;;
45760;SDS011;31471;51.040;14.414;2022-08-21T03:41:51;6.38;;;5.05;;
45760;SDS011;31471;51.040;14.414;2022-08-21T03:44:18;9.70;;;5.43;;
45760;SDS011;31471;51.040;14.414;2022-08-21T03:49:10;8.32;;;5.40;;
45760;SDS011;31471;51.040;14.414;2022-08-21T03:54:01;7.97;;;6.00;;
45760;SDS011;31471;51.040;14.414;2022-08-21T03:56:27;9.13;;;6.03;;
45760;SDS011;31471;51.040;14.414;2022-08-21T04:01:18;8.77;;;6.25;;
45760;SDS011;31471;51.040;14.414;2022-08-21T04:06:09;8.13;;;6.35;;
45760;SDS011;31471;51.040;14.414;2022-08-21T04:11:01;12.43;;;6.53;;
45760;SDS011;31471;51.040;14.414;2022-08-21T04:15:53;11.68;;;7.10;;
45760;SDS011;31471;51.040;14.414;2022-08-21T04:18:19;9.52;;;6.65;;
45760;SDS011;31471;51.040;14.414;2022-08-21T04:25:38;11.15;;;7.70;;
45760;SDS011;31471;51.040;14.414;2022-08-21T04:28:03;11.93;;;7.70;;
45760;SDS011;31471;51.040;14.414;2022-08-21T04:32:55;11.13;;;7.60;;
45760;SDS011;31471;51.040;14.414;2022-08-21T04:35:23;11.65;;;7.45;;
45760;SDS011;31471;51.040;14.414;2022-08-21T04:37:50;11.15;;;8.25;;
45760;SDS011;31471;51.040;14.414;2022-08-21T04:42:44;12.25;;;8.05;;
45760;SDS011;31471;51.040;14.414;2022-08-21T04:45:19;10.32;;;7.55;;
45760;SDS011;31471;51.040;14.414;2022-08-21T04:47:48;11.77;;;7.85;;
45760;SDS011;31471;51.040;14.414;2022-08-21T04:50:15;9.60;;;7.35;;
45760;SDS011;31471;51.040;14.414;2022-08-21T04:55:17;11.68;;;7.68;;
45760;SDS011;31471;51.040;14.414;2022-08-21T05:00:09;10.13;;;7.80;;
45760;SDS011;31471;51.040;14.414;2022-08-21T05:02:36;12.27;;;8.45;;
45760;SDS011;31471;51.040;14.414;2022-08-21T05:07:28;12.82;;;8.07;;
45760;SDS011;31471;51.040;14.414;2022-08-21T05:09:55;15.88;;;9.32;;
45760;SDS011;31471;51.040;14.414;2022-08-21T05:14:46;14.10;;;8.68;;
45760;SDS011;31471;51.040;14.414;2022-08-21T05:19:38;12.80;;;9.35;;
45760;SDS011;31471;51.040;14.414;2022-08-21T05:22:05;14.48;;;9.50;;
45760;SDS011;31471;51.040;14.414;2022-08-21T05:26:57;11.52;;;8.48;;
45760;SDS011;31471;51.040;14.414;2022-08-21T05:31:48;12.40;;;8.43;;
45760;SDS011;31471;51.040;14.414;2022-08-21T05:36:42;12.43;;;8.38;;
45760;SDS011;31471;51.040;14.414;2022-08-21T05:41:33;14.98;;;8.68;;
45760;SDS011;31471;51.040;14.414;2022-08-21T05:46:24;10.88;;;7.95;;
45760;SDS011;31471;51.040;14.414;2022-08-21T05:51:15;11.43;;;7.38;;
45760;SDS011;31471;51.040;14.414;2022-08-21T05:53:41;10.40;;;7.63;;
45760;SDS011;31471;51.040;14.414;2022-08-21T05:56:08;9.80;;;7.20;;
45760;SDS011;31471;51.040;14.414;2022-08-21T05:58:34;9.85;;;6.97;;
45760;SDS011;31471;51.040;14.414;2022-08-21T06:03:27;10.73;;;7.13;;
45760;SDS011;31471;51.040;14.414;2022-08-21T06:05:55;13.00;;;9.40;;
45760;SDS011;31471;51.040;14.414;2022-08-21T06:10:47;11.35;;;7.30;;
45760;SDS011;31471;51.040;14.414;2022-08-21T06:13:13;13.70;;;7.60;;
45760;SDS011;31471;51.040;14.414;2022-08-21T06:15:40;10.55;;;7.43;;
45760;SDS011;31471;51.040;14.414;2022-08-21T06:20:32;12.77;;;7.95;;
45760;SDS011;31471;51.040;14.414;2022-08-21T06:25:23;13.63;;;7.97;;
45760;SDS011;31471;51.040;14.414;2022-08-21T06:27:49;10.77;;;7.95;;
45760;SDS011;31471;51.040;14.414;2022-08-21T06:32:41;11.15;;;8.40;;
45760;SDS011;31471;51.040;14.414;2022-08-21T06:37:32;12.95;;;7.97;;
45760;SDS011;31471;51.040;14.414;2022-08-21T06:42:23;13.45;;;9.02;;
45760;SDS011;31471;51.040;14.414;2022-08-21T06:47:14;15.05;;;10.85;;
45760;SDS011;31471;51.040;14.414;2022-08-21T06:52:09;16.05;;;10.77;;
45760;SDS011;31471;51.040;14.414;2022-08-21T06:54:36;17.02;;;11.70;;
45760;SDS011;31471;51.040;14.414;2022-08-21T06:57:02;16.33;;;11.52;;
45760;SDS011;31471;51.040;14.414;2022-08-21T07:01:53;19.85;;;12.55;;
45760;SDS011;31471;51.040;14.414;2022-08-21T07:06:45;19.40;;;12.18;;
45760;SDS011;31471;51.040;14.414;2022-08-21T07:11:36;18.88;;;12.38;;
45760;SDS011;31471;51.040;14.414;2022-08-21T07:16:28;17.70;;;11.30;;
45760;SDS011;31471;51.040;14.414;2022-08-21T07:21:20;19.55;;;13.27;;
45760;SDS011;31471;51.040;14.414;2022-08-21T07:26:16;20.80;;;12.02;;
45760;SDS011;31471;51.040;14.414;2022-08-21T07:28:45;21.65;;;13.23;;
45760;SDS011;31471;51.040;14.414;2022-08-21T07:33:39;18.25;;;12.18;;
45760;SDS011;31471;51.040;14.414;2022-08-21T07:38:30;18.63;;;11.38;;
45760;SDS011;31471;51.040;14.414;2022-08-21T07:43:23;15.13;;;10.23;;
45760;SDS011;31471;51.040;14.414;2022-08-21T07:48:15;13.35;;;9.77;;
45760;SDS011;31471;51.040;14.414;2022-08-21T07:53:07;15.15;;;9.15;;
45760;SDS011;31471;51.040;14.414;2022-08-21T07:57:58;16.13;;;10.30;;
45760;SDS011;31471;51.040;14.414;2022-08-21T08:02:51;14.02;;;8.95;;
45760;SDS011;31471;51.040;14.414;2022-08-21T08:05:19;12.52;;;8.50;;
45760;SDS011;31471;51.040;14.414;2022-08-21T08:07:48;13.18;;;8.77;;
45760;SDS011;31471;51.040;14.414;2022-08-21T08:12:40;10.93;;;8.18;;
45760;SDS011;31471;51.040;14.414;2022-08-21T08:15:10;10.05;;;8.35;;
45760;SDS011;31471;51.040;14.414;2022-08-21T08:17:37;9.45;;;6.88;;
45760;SDS011;31471;51.040;14.414;2022-08-21T08:22:37;7.65;;;4.97;;
45760;SDS011;31471;51.040;14.414;2022-08-21T08:25:04;7.70;;;5.13;;
45760;SDS011;31471;51.040;14.414;2022-08-21T08:27:31;9.07;;;5.57;;
45760;SDS011;31471;51.040;14.414;2022-08-21T08:32:22;8.35;;;6.18;;
45760;SDS011;31471;51.040;14.414;2022-08-21T08:34:48;7.93;;;5.75;;
45760;SDS011;31471;51.040;14.414;2022-08-21T08:37:16;8.23;;;6.20;;
45760;SDS011;31471;51.040;14.414;2022-08-21T08:39:43;6.72;;;5.45;;
45760;SDS011;31471;51.040;14.414;2022-08-21T08:44:58;8.05;;;6.22;;
45760;SDS011;31471;51.040;14.414;2022-08-21T08:53:11;14.20;;;7.03;;
45760;SDS011;31471;51.040;14.414;2022-08-21T08:55:41;8.45;;;6.55;;
45760;SDS011;31471;51.040;14.414;2022-08-21T08:58:14;13.98;;;7.53;;
45760;SDS011;31471;51.040;14.414;2022-08-21T09:00:45;10.00;;;7.15;;
45760;SDS011;31471;51.040;14.414;2022-08-21T09:03:13;10.80;;;6.45;;
45760;SDS011;31471;51.040;14.414;2022-08-21T09:08:26;8.18;;;6.38;;
45760;SDS011;31471;51.040;14.414;2022-08-21T09:13:39;8.70;;;5.22;;
45760;SDS011;31471;51.040;14.414;2022-08-21T09:18:54;9.77;;;6.35;;
45760;SDS011;31471;51.040;14.414;2022-08-21T09:21:47;7.95;;;5.78;;
45760;SDS011;31471;51.040;14.414;2022-08-21T09:25:24;9.65;;;5.80;;
45760;SDS011;31471;51.040;14.414;2022-08-21T09:27:25;8.07;;;5.20;;
45760;SDS011;31471;51.040;14.414;2022-08-21T09:29:52;6.80;;;4.93;;
45760;SDS011;31471;51.040;14.414;2022-08-21T09:32:25;26.33;;;18.23;;
45760;SDS011;31471;51.040;14.414;2022-08-21T09:35:16;8.18;;;6.00;;
45760;SDS011;31471;51.040;14.414;2022-08-21T09:37:53;5.38;;;4.40;;
45760;SDS011;31471;51.040;14.414;2022-08-21T09:40:29;7.60;;;4.57;;
45760;SDS011;31471;51.040;14.414;2022-08-21T09:45:36;9.63;;;5.20;;
45760;SDS011;31471;51.040;14.414;2022-08-21T09:50:48;7.72;;;5.32;;
45760;SDS011;31471;51.040;14.414;2022-08-21T09:53:28;5.93;;;5.05;;
45760;SDS011;31471;51.040;14.414;2022-08-21T09:56:03;6.07;;;4.53;;
45760;SDS011;31471;51.040;14.414;2022-08-21T09:58:59;7.25;;;4.03;;
45760;SDS011;31471;51.040;14.414;2022-08-21T10:01:25;6.15;;;3.83;;
45760;SDS011;31471;51.040;14.414;2022-08-21T10:04:12;7.65;;;4.32;;
45760;SDS011;31471;51.040;14.414;2022-08-21T10:06:37;5.90;;;3.50;;
45760;SDS011;31471;51.040;14.414;2022-08-21T10:09:13;5.80;;;4.13;;
45760;SDS011;31471;51.040;14.414;2022-08-21T10:11:43;8.27;;;4.00;;
45760;SDS011;31471;51.040;14.414;2022-08-21T10:14:41;7.00;;;4.57;;
45760;SDS011;31471;51.040;14.414;2022-08-21T10:17:15;5.88;;;4.65;;
45760;SDS011;31471;51.040;14.414;2022-08-21T10:19:51;8.38;;;4.80;;
45760;SDS011;31471;51.040;14.414;2022-08-21T10:33:11;8.38;;;3.95;;
45760;SDS011;31471;51.040;14.414;2022-08-21T10:36:18;5.53;;;3.75;;
45760;SDS011;31471;51.040;14.414;2022-08-21T10:38:55;9.15;;;4.05;;
45760;SDS011;31471;51.040;14.414;2022-08-21T10:46:56;6.63;;;3.72;;
45760;SDS011;31471;51.040;14.414;2022-08-21T10:52:18;9.50;;;4.05;;
45760;SDS011;31471;51.040;14.414;2022-08-21T10:55:04;4.15;;;3.40;;
45760;SDS011;31471;51.040;14.414;2022-08-21T10:57:41;4.30;;;3.10;;
45760;SDS011;31471;51.040;14.414;2022-08-21T11:00:09;6.57;;;2.88;;
45760;SDS011;31471;51.040;14.414;2022-08-21T11:02:39;5.47;;;2.80;;
45760;SDS011;31471;51.040;14.414;2022-08-21T11:05:30;6.43;;;3.97;;
45760;SDS011;31471;51.040;14.414;2022-08-21T11:10:40;4.78;;;2.50;;
45760;SDS011;31471;51.040;14.414;2022-08-21T11:13:17;4.90;;;2.78;;
45760;SDS011;31471;51.040;14.414;2022-08-21T11:15:56;7.28;;;2.80;;
45760;SDS011;31471;51.040;14.414;2022-08-21T11:18:47;5.35;;;2.70;;
45760;SDS011;31471;51.040;14.414;2022-08-21T11:26:54;4.88;;;2.30;;
45760;SDS011;31471;51.040;14.414;2022-08-21T11:29:32;5.97;;;2.60;;
45760;SDS011;31471;51.040;14.414;2022-08-21T11:37:48;4.07;;;2.60;;
45760;SDS011;31471;51.040;14.414;2022-08-21T11:40:40;7.28;;;2.83;;
45760;SDS011;31471;51.040;14.414;2022-08-21T11:43:34;6.63;;;2.40;;
45760;SDS011;31471;51.040;14.414;2022-08-21T11:46:25;5.05;;;2.20;;
45760;SDS011;31471;51.040;14.414;2022-08-21T11:49:16;7.93;;;2.42;;
45760;SDS011;31471;51.040;14.414;2022-08-21T11:54:55;6.03;;;1.90;;
45760;SDS011;31471;51.040;14.414;2022-08-21T12:02:42;3.15;;;2.08;;
45760;SDS011;31471;51.040;14.414;2022-08-21T12:05:22;3.08;;;1.98;;
45760;SDS011;31471;51.040;14.414;2022-08-21T12:07:59;4.50;;;2.08;;
45760;SDS011;31471;51.040;14.414;2022-08-21T12:10:33;5.10;;;1.95;;
45760;SDS011;31471;51.040;14.414;2022-08-21T12:13:27;5.90;;;2.20;;
45760;SDS011;31471;51.040;14.414;2022-08-21T12:16:08;3.67;;;2.75;;
45760;SDS011;31471;51.040;14.414;2022-08-21T12:18:36;5.80;;;2.75;;
45760;SDS011;31471;51.040;14.414;2022-08-21T12:21:17;4.32;;;1.98;;
45760;SDS011;31471;51.040;14.414;2022-08-21T12:26:51;4.05;;;2.33;;
45760;SDS011;31471;51.040;14.414;2022-08-21T12:29:37;4.25;;;2.22;;
45760;SDS011;31471;51.040;14.414;2022-08-21T12:32:04;5.28;;;2.63;;
45760;SDS011;31471;51.040;14.414;2022-08-21T12:34:52;4.60;;;2.35;;
45760;SDS011;31471;51.040;14.414;2022-08-21T12:37:37;4.93;;;2.13;;
45760;SDS011;31471;51.040;14.414;2022-08-21T12:40:20;6.38;;;2.30;;
45760;SDS011;31471;51.040;14.414;2022-08-21T12:42:49;2.53;;;2.20;;
45760;SDS011;31471;51.040;14.414;2022-08-21T12:45:23;4.25;;;1.88;;
45760;SDS011;31471;51.040;14.414;2022-08-21T12:48:23;3.53;;;1.85;;
45760;SDS011;31471;51.040;14.414;2022-08-21T12:50:54;3.88;;;1.48;;
45760;SDS011;31471;51.040;14.414;2022-08-21T12:55:57;3.83;;;1.20;;
45760;SDS011;31471;51.040;14.414;2022-08-21T12:58:29;2.97;;;1.33;;
45760;SDS011;31471;51.040;14.414;2022-08-21T13:00:56;2.00;;;1.23;;
45760;SDS011;31471;51.040;14.414;2022-08-21T13:03:33;2.25;;;1.40;;
45760;SDS011;31471;51.040;14.414;2022-08-21T13:06:03;3.08;;;1.73;;
45760;SDS011;31471;51.040;14.414;2022-08-21T13:08:30;3.85;;;1.70;;
45760;SDS011;31471;51.040;14.414;2022-08-21T13:11:03;2.35;;;1.23;;
45760;SDS011;31471;51.040;14.414;2022-08-21T13:13:31;5.07;;;1.92;;
45760;SDS011;31471;51.040;14.414;2022-08-21T13:15:58;3.92;;;1.30;;
45760;SDS011;31471;51.040;14.414;2022-08-21T13:18:28;4.20;;;1.65;;
45760;SDS011;31471;51.040;14.414;2022-08-21T13:21:03;3.50;;;1.65;;
45760;SDS011;31471;51.040;14.414;2022-08-21T13:23:30;5.35;;;1.80;;
45760;SDS011;31471;51.040;14.414;2022-08-21T13:25:56;2.90;;;1.40;;
45760;SDS011;31471;51.040;14.414;2022-08-21T13:28:22;5.45;;;2.13;;
45760;SDS011;31471;51.040;14.414;2022-08-21T13:30:53;9.57;;;2.20;;
45760;SDS011;31471;51.040;14.414;2022-08-21T13:33:21;3.53;;;1.65;;
45760;SDS011;31471;51.040;14.414;2022-08-21T13:38:29;2.92;;;1.63;;
45760;SDS011;31471;51.040;14.414;2022-08-21T13:41:43;3.40;;;1.55;;
45760;SDS011;31471;51.040;14.414;2022-08-21T13:43:56;2.80;;;1.40;;
45760;SDS011;31471;51.040;14.414;2022-08-21T13:46:24;5.07;;;1.30;;
45760;SDS011;31471;51.040;14.414;2022-08-21T13:48:55;2.97;;;1.70;;
45760;SDS011;31471;51.040;14.414;2022-08-21T13:51:21;6.05;;;1.95;;
45760;SDS011;31471;51.040;14.414;2022-08-21T13:53:48;2.05;;;1.38;;
45760;SDS011;31471;51.040;14.414;2022-08-21T13:56:25;1.50;;;1.40;;
45760;SDS011;31471;51.040;14.414;2022-08-21T13:58:54;3.00;;;1.90;;
45760;SDS011;31471;51.040;14.414;2022-08-21T14:01:29;2.33;;;1.92;;
45760;SDS011;31471;51.040;14.414;2022-08-21T14:04:00;2.05;;;1.55;;
45760;SDS011;31471;51.040;14.414;2022-08-21T14:06:33;2.28;;;1.63;;
45760;SDS011;31471;51.040;14.414;2022-08-21T14:09:07;4.07;;;1.55;;
45760;SDS011;31471;51.040;14.414;2022-08-21T14:11:35;4.25;;;1.70;;
45760;SDS011;31471;51.040;14.414;2022-08-21T14:14:03;4.15;;;1.45;;
45760;SDS011;31471;51.040;14.414;2022-08-21T14:16:41;2.80;;;1.60;;
45760;SDS011;31471;51.040;14.414;2022-08-21T14:19:22;4.93;;;1.63;;
45760;SDS011;31471;51.040;14.414;2022-08-21T14:21:49;3.45;;;1.50;;
45760;SDS011;31471;51.040;14.414;2022-08-21T14:26:49;3.97;;;1.60;;
45760;SDS011;31471;51.040;14.414;2022-08-21T14:29:18;5.40;;;1.40;;
45760;SDS011;31471;51.040;14.414;2022-08-21T14:31:53;2.55;;;1.67;;
45760;SDS011;31471;51.040;14.414;2022-08-21T14:34:20;2.25;;;1.40;;
45760;SDS011;31471;51.040;14.414;2022-08-21T14:36:49;2.47;;;1.30;;
45760;SDS011;31471;51.040;14.414;2022-08-21T14:39:15;2.00;;;1.40;;
45760;SDS011;31471;51.040;14.414;2022-08-21T14:41:41;2.20;;;1.25;;
45760;SDS011;31471;51.040;14.414;2022-08-21T14:44:07;1.77;;;1.35;;
45760;SDS011;31471;51.040;14.414;2022-08-21T14:46:34;3.15;;;1.50;;
45760;SDS011;31471;51.040;14.414;2022-08-21T14:49:01;3.05;;;1.90;;
45760;SDS011;31471;51.040;14.414;2022-08-21T14:51:28;2.53;;;1.35;;
45760;SDS011;31471;51.040;14.414;2022-08-21T14:53:53;3.88;;;1.70;;
45760;SDS011;31471;51.040;14.414;2022-08-21T14:56:19;4.10;;;2.30;;
45760;SDS011;31471;51.040;14.414;2022-08-21T14:58:47;4.68;;;1.38;;
45760;SDS011;31471;51.040;14.414;2022-08-21T15:01:14;3.60;;;1.70;;
45760;SDS011;31471;51.040;14.414;2022-08-21T15:03:42;4.22;;;1.85;;
45760;SDS011;31471;51.040;14.414;2022-08-21T15:06:08;4.47;;;1.65;;
45760;SDS011;31471;51.040;14.414;2022-08-21T15:08:34;2.55;;;1.50;;
45760;SDS011;31471;51.040;14.414;2022-08-21T15:11:01;1.27;;;1.17;;
45760;SDS011;31471;51.040;14.414;2022-08-21T15:13:28;2.47;;;1.50;;
45760;SDS011;31471;51.040;14.414;2022-08-21T15:15:54;3.05;;;1.70;;
45760;SDS011;31471;51.040;14.414;2022-08-21T15:18:21;2.75;;;1.70;;
45760;SDS011;31471;51.040;14.414;2022-08-21T15:20:47;3.03;;;1.67;;
45760;SDS011;31471;51.040;14.414;2022-08-21T15:23:13;3.08;;;1.63;;
45760;SDS011;31471;51.040;14.414;2022-08-21T15:25:42;2.95;;;1.60;;
45760;SDS011;31471;51.040;14.414;2022-08-21T15:28:10;1.83;;;1.60;;
45760;SDS011;31471;51.040;14.414;2022-08-21T15:30:38;2.85;;;1.40;;
45760;SDS011;31471;51.040;14.414;2022-08-21T15:33:04;3.22;;;1.50;;
45760;SDS011;31471;51.040;14.414;2022-08-21T15:35:30;1.95;;;1.50;;
45760;SDS011;31471;51.040;14.414;2022-08-21T15:37:56;2.03;;;1.20;;
45760;SDS011;31471;51.040;14.414;2022-08-21T15:40:22;3.38;;;1.63;;
45760;SDS011;31471;51.040;14.414;2022-08-21T15:42:52;2.72;;;1.42;;
45760;SDS011;31471;51.040;14.414;2022-08-21T15:45:34;1.92;;;1.50;;
45760;SDS011;31471;51.040;14.414;2022-08-21T15:48:11;1.95;;;1.75;;
45760;SDS011;31471;51.040;14.414;2022-08-21T15:50:37;6.03;;;1.70;;
45760;SDS011;31471;51.040;14.414;2022-08-21T15:53:03;2.08;;;1.70;;
45760;SDS011;31471;51.040;14.414;2022-08-21T15:55:28;5.90;;;1.55;;
45760;SDS011;31471;51.040;14.414;2022-08-21T15:57:54;5.97;;;3.20;;
45760;SDS011;31471;51.040;14.414;2022-08-21T16:00:21;2.80;;;1.83;;
45760;SDS011;31471;51.040;14.414;2022-08-21T16:02:50;2.42;;;1.83;;
45760;SDS011;31471;51.040;14.414;2022-08-21T16:05:18;2.08;;;1.30;;
45760;SDS011;31471;51.040;14.414;2022-08-21T16:07:45;1.80;;;1.48;;
45760;SDS011;31471;51.040;14.414;2022-08-21T16:10:13;3.45;;;1.40;;
45760;SDS011;31471;51.040;14.414;2022-08-21T16:12:47;1.95;;;1.50;;
45760;SDS011;31471;51.040;14.414;2022-08-21T16:15:16;2.65;;;1.52;;
45760;SDS011;31471;51.040;14.414;2022-08-21T16:17:43;4.05;;;1.30;;
45760;SDS011;31471;51.040;14.414;2022-08-21T16:20:13;2.30;;;1.38;;
45760;SDS011;31471;51.040;14.414;2022-08-21T16:22:41;3.65;;;1.42;;
45760;SDS011;31471;51.040;14.414;2022-08-21T16:25:07;3.25;;;1.38;;
45760;SDS011;31471;51.040;14.414;2022-08-21T16:27:33;2.75;;;1.15;;
45760;SDS011;31471;51.040;14.414;2022-08-21T16:30:00;2.80;;;1.40;;
45760;SDS011;31471;51.040;14.414;2022-08-21T16:32:27;2.45;;;1.30;;
45760;SDS011;31471;51.040;14.414;2022-08-21T16:34:53;3.80;;;1.70;;
45760;SDS011;31471;51.040;14.414;2022-08-21T16:37:19;3.55;;;1.42;;
45760;SDS011;31471;51.040;14.414;2022-08-21T16:39:46;1.23;;;1.13;;
45760;SDS011;31471;51.040;14.414;2022-08-21T16:42:13;4.25;;;2.22;;
45760;SDS011;31471;51.040;14.414;2022-08-21T16:44:43;2.15;;;1.67;;
45760;SDS011;31471;51.040;14.414;2022-08-21T16:47:09;2.65;;;1.58;;
45760;SDS011;31471;51.040;14.414;2022-08-21T16:49:34;2.97;;;1.50;;
45760;SDS011;31471;51.040;14.414;2022-08-21T16:52:01;3.58;;;1.88;;
45760;SDS011;31471;51.040;14.414;2022-08-21T16:54:27;1.63;;;1.13;;
45760;SDS011;31471;51.040;14.414;2022-08-21T16:56:54;3.13;;;1.50;;
45760;SDS011;31471;51.040;14.414;2022-08-21T16:59:21;4.10;;;1.80;;
45760;SDS011;31471;51.040;14.414;2022-08-21T17:01:47;2.97;;;1.73;;
45760;SDS011;31471;51.040;14.414;2022-08-21T17:04:13;3.13;;;1.60;;
45760;SDS011;31471;51.040;14.414;2022-08-21T17:06:38;4.45;;;1.58;;
45760;SDS011;31471;51.040;14.414;2022-08-21T17:09:04;3.80;;;1.85;;
45760;SDS011;31471;51.040;14.414;2022-08-21T17:11:33;2.42;;;1.70;;
45760;SDS011;31471;51.040;14.414;2022-08-21T17:14:03;1.80;;;1.70;;
45760;SDS011;31471;51.040;14.414;2022-08-21T17:16:33;3.92;;;1.55;;
45760;SDS011;31471;51.040;14.414;2022-08-21T17:18:59;4.80;;;1.65;;
45760;SDS011;31471;51.040;14.414;2022-08-21T17:21:25;3.95;;;1.60;;
45760;SDS011;31471;51.040;14.414;2022-08-21T17:23:50;4.28;;;1.60;;
45760;SDS011;31471;51.040;14.414;2022-08-21T17:26:16;2.33;;;1.48;;
45760;SDS011;31471;51.040;14.414;2022-08-21T17:28:43;1.85;;;1.38;;
45760;SDS011;31471;51.040;14.414;2022-08-21T17:31:09;2.88;;;1.70;;
45760;SDS011;31471;51.040;14.414;2022-08-21T17:33:41;4.63;;;1.90;;
45760;SDS011;31471;51.040;14.414;2022-08-21T17:36:22;1.75;;;1.33;;
45760;SDS011;31471;51.040;14.414;2022-08-21T17:38:52;5.18;;;1.52;;
45760;SDS011;31471;51.040;14.414;2022-08-21T17:41:18;2.03;;;1.60;;
45760;SDS011;31471;51.040;14.414;2022-08-21T17:43:45;7.22;;;1.75;;
45760;SDS011;31471;51.040;14.414;2022-08-21T17:46:11;2.78;;;1.58;;
45760;SDS011;31471;51.040;14.414;2022-08-21T17:48:42;4.00;;;1.70;;
45760;SDS011;31471;51.040;14.414;2022-08-21T17:51:08;3.10;;;1.40;;
45760;SDS011;31471;51.040;14.414;2022-08-21T17:53:35;1.88;;;1.33;;
45760;SDS011;31471;51.040;14.414;2022-08-21T17:56:01;1.95;;;1.60;;
45760;SDS011;31471;51.040;14.414;2022-08-21T17:58:27;1.77;;;1.23;;
45760;SDS011;31471;51.040;14.414;2022-08-21T18:00:53;2.38;;;1.60;;
45760;SDS011;31471;51.040;14.414;2022-08-21T18:03:19;5.10;;;1.48;;
45760;SDS011;31471;51.040;14.414;2022-08-21T18:05:47;3.03;;;1.88;;
45760;SDS011;31471;51.040;14.414;2022-08-21T18:08:14;3.55;;;1.50;;
45760;SDS011;31471;51.040;14.414;2022-08-21T18:10:42;5.93;;;1.88;;
45760;SDS011;31471;51.040;14.414;2022-08-21T18:13:11;2.47;;;1.70;;
45760;SDS011;31471;51.040;14.414;2022-08-21T18:15:40;2.60;;;1.70;;
45760;SDS011;31471;51.040;14.414;2022-08-21T18:18:08;1.70;;;1.50;;
45760;SDS011;31471;51.040;14.414;2022-08-21T18:20:34;2.55;;;1.52;;
45760;SDS011;31471;51.040;14.414;2022-08-21T18:22:59;2.80;;;1.20;;
45760;SDS011;31471;51.040;14.414;2022-08-21T18:25:25;1.92;;;1.50;;
45760;SDS011;31471;51.040;14.414;2022-08-21T18:27:51;3.40;;;1.55;;
45760;SDS011;31471;51.040;14.414;2022-08-21T18:30:18;3.78;;;1.92;;
45760;SDS011;31471;51.040;14.414;2022-08-21T18:32:45;2.67;;;1.70;;
45760;SDS011;31471;51.040;14.414;2022-08-21T18:35:12;1.92;;;1.70;;
45760;SDS011;31471;51.040;14.414;2022-08-21T18:37:39;2.88;;;1.77;;
45760;SDS011;31471;51.040;14.414;2022-08-21T18:45:02;1.92;;;1.50;;
45760;SDS011;31471;51.040;14.414;2022-08-21T18:47:31;2.50;;;1.60;;
45760;SDS011;31471;51.040;14.414;2022-08-21T18:50:04;3.47;;;2.08;;
45760;SDS011;31471;51.040;14.414;2022-08-21T18:52:30;2.58;;;1.83;;
45760;SDS011;31471;51.040;14.414;2022-08-21T18:57:23;4.18;;;1.65;;
45760;SDS011;31471;51.040;14.414;2022-08-21T18:59:52;3.05;;;1.90;;